sensor_id;sensor_type;location;lat;lon;timestamp;P1;durP1;ratioP1;P2;durP2;ratioP2
56641;SDS011;76646;51.506;5.304;2024-03-23T00:52:24;14.65;;;4.85;;
56641;SDS011;76646;51.506;5.304;2024-03-23T00:54:49;14.23;;;4.00;;
56641;SDS011;76646;51.506;5.304;2024-03-23T00:57:15;10.67;;;5.60;;
56641;SDS011;76646;51.506;5.304;2024-03-23T00:59:41;7.67;;;4.00;;
56641;SDS011;76646;51.506;5.304;2024-03-23T01:02:06;8.10;;;6.53;;
56641;SDS011;76646;51.506;5.304;2024-03-23T01:04:33;6.00;;;3.93;;
56641;SDS011;76646;51.506;5.304;2024-03-23T01:06:59;8.90;;;5.20;;
56641;SDS011;76646;51.506;5.304;2024-03-23T01:09:25;5.97;;;3.57;;
56641;SDS011;76646;51.506;5.304;2024-03-23T01:11:50;17.97;;;6.17;;
56641;SDS011;76646;51.506;5.304;2024-03-23T01:14:16;10.20;;;4.57;;
56641;SDS011;76646;51.506;5.304;2024-03-23T01:16:42;12.40;;;4.33;;
56641;SDS011;76646;51.506;5.304;2024-03-23T01:19:08;8.83;;;3.20;;
56641;SDS011;76646;51.506;5.304;2024-03-23T01:21:34;11.23;;;3.90;;
56641;SDS011;76646;51.506;5.304;2024-03-23T01:23:59;14.00;;;3.97;;
56641;SDS011;76646;51.506;5.304;2024-03-23T01:26:25;17.27;;;6.20;;
56641;SDS011;76646;51.506;5.304;2024-03-23T01:28:52;11.90;;;4.47;;
56641;SDS011;76646;51.506;5.304;2024-03-23T01:31:17;11.00;;;3.23;;
56641;SDS011;76646;51.506;5.304;2024-03-23T01:33:44;8.47;;;4.47;;
56641;SDS011;76646;51.506;5.304;2024-03-23T01:36:10;16.13;;;6.73;;
56641;SDS011;76646;51.506;5.304;2024-03-23T01:38:36;16.90;;;5.43;;
56641;SDS011;76646;51.506;5.304;2024-03-23T01:41:01;7.90;;;3.90;;
56641;SDS011;76646;51.506;5.304;2024-03-23T01:43:27;13.10;;;5.90;;
56641;SDS011;76646;51.506;5.304;2024-03-23T01:45:56;8.87;;;4.60;;
56641;SDS011;76646;51.506;5.304;2024-03-23T01:48:23;12.30;;;4.30;;
56641;SDS011;76646;51.506;5.304;2024-03-23T01:50:49;8.03;;;4.80;;
56641;SDS011;76646;51.506;5.304;2024-03-23T01:53:15;7.60;;;3.70;;
56641;SDS011;76646;51.506;5.304;2024-03-23T01:55:47;13.77;;;5.23;;
56641;SDS011;76646;51.506;5.304;2024-03-23T01:58:15;11.20;;;4.67;;
56641;SDS011;76646;51.506;5.304;2024-03-23T02:00:40;8.20;;;5.33;;
56641;SDS011;76646;51.506;5.304;2024-03-23T02:05:55;11.40;;;4.80;;
56641;SDS011;76646;51.506;5.304;2024-03-23T02:08:22;13.47;;;6.00;;
56641;SDS011;76646;51.506;5.304;2024-03-23T02:10:51;12.03;;;5.07;;
56641;SDS011;76646;51.506;5.304;2024-03-23T02:13:17;12.47;;;6.30;;
56641;SDS011;76646;51.506;5.304;2024-03-23T02:15:43;8.67;;;5.07;;
56641;SDS011;76646;51.506;5.304;2024-03-23T02:18:10;12.63;;;6.07;;
56641;SDS011;76646;51.506;5.304;2024-03-23T02:20:36;8.90;;;5.17;;
56641;SDS011;76646;51.506;5.304;2024-03-23T02:23:02;9.67;;;4.43;;
56641;SDS011;76646;51.506;5.304;2024-03-23T02:25:28;15.67;;;5.70;;
56641;SDS011;76646;51.506;5.304;2024-03-23T02:27:54;8.43;;;4.10;;
56641;SDS011;76646;51.506;5.304;2024-03-23T02:30:21;11.37;;;4.03;;
56641;SDS011;76646;51.506;5.304;2024-03-23T02:32:46;17.87;;;6.33;;
56641;SDS011;76646;51.506;5.304;2024-03-23T02:35:12;14.20;;;6.00;;
56641;SDS011;76646;51.506;5.304;2024-03-23T02:37:39;9.77;;;4.47;;
56641;SDS011;76646;51.506;5.304;2024-03-23T02:40:05;8.30;;;3.57;;
56641;SDS011;76646;51.506;5.304;2024-03-23T02:42:33;7.23;;;4.50;;
56641;SDS011;76646;51.506;5.304;2024-03-23T02:44:58;6.30;;;4.07;;
56641;SDS011;76646;51.506;5.304;2024-03-23T02:47:26;13.87;;;4.03;;
56641;SDS011;76646;51.506;5.304;2024-03-23T02:49:51;17.27;;;6.87;;
56641;SDS011;76646;51.506;5.304;2024-03-23T02:52:19;9.37;;;3.67;;
56641;SDS011;76646;51.506;5.304;2024-03-23T02:54:45;10.33;;;4.13;;
56641;SDS011;76646;51.506;5.304;2024-03-23T02:57:11;13.87;;;4.97;;
56641;SDS011;76646;51.506;5.304;2024-03-23T02:59:36;20.77;;;4.43;;
56641;SDS011;76646;51.506;5.304;2024-03-23T03:02:03;15.80;;;4.07;;
56641;SDS011;76646;51.506;5.304;2024-03-23T03:04:31;6.97;;;3.70;;
56641;SDS011;76646;51.506;5.304;2024-03-23T03:06:57;10.50;;;3.60;;
56641;SDS011;76646;51.506;5.304;2024-03-23T03:09:22;17.57;;;3.27;;
56641;SDS011;76646;51.506;5.304;2024-03-23T03:11:50;8.00;;;3.10;;
56641;SDS011;76646;51.506;5.304;2024-03-23T03:14:16;6.80;;;3.93;;
56641;SDS011;76646;51.506;5.304;2024-03-23T03:16:42;10.87;;;4.50;;
56641;SDS011;76646;51.506;5.304;2024-03-23T03:19:08;8.63;;;3.30;;
56641;SDS011;76646;51.506;5.304;2024-03-23T03:24:05;12.13;;;4.50;;
56641;SDS011;76646;51.506;5.304;2024-03-23T03:26:34;5.90;;;2.80;;
56641;SDS011;76646;51.506;5.304;2024-03-23T03:29:00;7.20;;;3.40;;
56641;SDS011;76646;51.506;5.304;2024-03-23T03:31:26;6.80;;;3.27;;
56641;SDS011;76646;51.506;5.304;2024-03-23T03:33:52;9.53;;;3.83;;
56641;SDS011;76646;51.506;5.304;2024-03-23T03:36:17;7.23;;;3.80;;
56641;SDS011;76646;51.506;5.304;2024-03-23T03:38:43;29.07;;;6.03;;
56641;SDS011;76646;51.506;5.304;2024-03-23T03:41:09;6.90;;;3.30;;
56641;SDS011;76646;51.506;5.304;2024-03-23T03:43:34;9.03;;;3.03;;
56641;SDS011;76646;51.506;5.304;2024-03-23T03:46:01;9.77;;;6.27;;
56641;SDS011;76646;51.506;5.304;2024-03-23T03:48:27;7.83;;;4.47;;
56641;SDS011;76646;51.506;5.304;2024-03-23T03:50:53;12.63;;;3.93;;
56641;SDS011;76646;51.506;5.304;2024-03-23T03:53:19;9.07;;;3.90;;
56641;SDS011;76646;51.506;5.304;2024-03-23T03:55:46;9.47;;;4.97;;
56641;SDS011;76646;51.506;5.304;2024-03-23T03:58:13;9.07;;;4.20;;
56641;SDS011;76646;51.506;5.304;2024-03-23T04:00:39;8.23;;;3.93;;
56641;SDS011;76646;51.506;5.304;2024-03-23T04:03:04;16.20;;;4.33;;
56641;SDS011;76646;51.506;5.304;2024-03-23T04:05:32;9.70;;;4.67;;
56641;SDS011;76646;51.506;5.304;2024-03-23T04:07:57;10.33;;;4.23;;
56641;SDS011;76646;51.506;5.304;2024-03-23T04:10:23;18.50;;;7.63;;
56641;SDS011;76646;51.506;5.304;2024-03-23T04:12:51;12.43;;;5.23;;
56641;SDS011;76646;51.506;5.304;2024-03-23T04:15:17;8.60;;;2.97;;
56641;SDS011;76646;51.506;5.304;2024-03-23T04:17:43;11.30;;;5.70;;
56641;SDS011;76646;51.506;5.304;2024-03-23T04:20:12;9.97;;;5.23;;
56641;SDS011;76646;51.506;5.304;2024-03-23T04:22:41;8.10;;;4.17;;
56641;SDS011;76646;51.506;5.304;2024-03-23T04:25:07;11.73;;;5.93;;
56641;SDS011;76646;51.506;5.304;2024-03-23T04:27:33;13.90;;;5.43;;
56641;SDS011;76646;51.506;5.304;2024-03-23T04:30:01;12.43;;;5.30;;
56641;SDS011;76646;51.506;5.304;2024-03-23T04:32:27;12.23;;;7.60;;
56641;SDS011;76646;51.506;5.304;2024-03-23T04:34:54;12.07;;;5.50;;
56641;SDS011;76646;51.506;5.304;2024-03-23T04:37:20;9.53;;;5.40;;
56641;SDS011;76646;51.506;5.304;2024-03-23T04:39:46;11.30;;;3.70;;
56641;SDS011;76646;51.506;5.304;2024-03-23T04:42:11;11.97;;;6.10;;
56641;SDS011;76646;51.506;5.304;2024-03-23T04:44:40;12.63;;;6.30;;
56641;SDS011;76646;51.506;5.304;2024-03-23T04:47:05;9.27;;;5.40;;
56641;SDS011;76646;51.506;5.304;2024-03-23T04:49:31;10.83;;;6.17;;
56641;SDS011;76646;51.506;5.304;2024-03-23T04:51:57;17.13;;;6.40;;
56641;SDS011;76646;51.506;5.304;2024-03-23T04:54:23;17.80;;;7.87;;
56641;SDS011;76646;51.506;5.304;2024-03-23T04:56:50;10.53;;;6.63;;
56641;SDS011;76646;51.506;5.304;2024-03-23T04:59:16;16.03;;;7.97;;
56641;SDS011;76646;51.506;5.304;2024-03-23T05:01:42;12.53;;;7.33;;
56641;SDS011;76646;51.506;5.304;2024-03-23T05:04:09;20.60;;;9.33;;
56641;SDS011;76646;51.506;5.304;2024-03-23T05:06:35;18.67;;;8.23;;
56641;SDS011;76646;51.506;5.304;2024-03-23T05:09:01;17.87;;;7.67;;
56641;SDS011;76646;51.506;5.304;2024-03-23T05:11:33;11.80;;;6.57;;
56641;SDS011;76646;51.506;5.304;2024-03-23T05:13:59;19.60;;;6.43;;
56641;SDS011;76646;51.506;5.304;2024-03-23T05:16:25;17.37;;;9.67;;
56641;SDS011;76646;51.506;5.304;2024-03-23T05:18:51;18.27;;;7.70;;
56641;SDS011;76646;51.506;5.304;2024-03-23T05:21:17;18.17;;;9.37;;
56641;SDS011;76646;51.506;5.304;2024-03-23T05:23:43;16.97;;;8.93;;
56641;SDS011;76646;51.506;5.304;2024-03-23T05:26:08;21.77;;;10.43;;
56641;SDS011;76646;51.506;5.304;2024-03-23T05:28:35;21.37;;;8.50;;
56641;SDS011;76646;51.506;5.304;2024-03-23T05:31:00;21.07;;;9.77;;
56641;SDS011;76646;51.506;5.304;2024-03-23T05:33:26;19.20;;;10.90;;
56641;SDS011;76646;51.506;5.304;2024-03-23T05:35:59;20.50;;;9.70;;
56641;SDS011;76646;51.506;5.304;2024-03-23T05:38:25;14.23;;;8.10;;
56641;SDS011;76646;51.506;5.304;2024-03-23T05:41:09;16.37;;;9.10;;
56641;SDS011;76646;51.506;5.304;2024-03-23T05:43:35;13.60;;;8.03;;
56641;SDS011;76646;51.506;5.304;2024-03-23T05:46:01;27.80;;;8.30;;
56641;SDS011;76646;51.506;5.304;2024-03-23T05:48:31;16.10;;;7.03;;
56641;SDS011;76646;51.506;5.304;2024-03-23T05:50:57;17.93;;;8.13;;
56641;SDS011;76646;51.506;5.304;2024-03-23T05:53:23;19.53;;;9.10;;
56641;SDS011;76646;51.506;5.304;2024-03-23T05:55:49;18.43;;;9.27;;
56641;SDS011;76646;51.506;5.304;2024-03-23T05:58:16;15.57;;;6.50;;
56641;SDS011;76646;51.506;5.304;2024-03-23T06:00:42;12.53;;;6.83;;
56641;SDS011;76646;51.506;5.304;2024-03-23T06:03:10;21.27;;;7.67;;
56641;SDS011;76646;51.506;5.304;2024-03-23T06:05:39;13.70;;;6.30;;
56641;SDS011;76646;51.506;5.304;2024-03-23T06:08:06;21.90;;;6.68;;
56641;SDS011;76646;51.506;5.304;2024-03-23T06:10:34;16.07;;;4.80;;
56641;SDS011;76646;51.506;5.304;2024-03-23T06:13:00;11.73;;;6.40;;
56641;SDS011;76646;51.506;5.304;2024-03-23T06:15:26;12.23;;;6.27;;
56641;SDS011;76646;51.506;5.304;2024-03-23T06:17:52;18.07;;;7.33;;
56641;SDS011;76646;51.506;5.304;2024-03-23T06:20:19;10.37;;;5.30;;
56641;SDS011;76646;51.506;5.304;2024-03-23T06:22:44;15.53;;;5.90;;
56641;SDS011;76646;51.506;5.304;2024-03-23T06:25:10;12.93;;;6.50;;
56641;SDS011;76646;51.506;5.304;2024-03-23T06:27:39;16.60;;;6.03;;
56641;SDS011;76646;51.506;5.304;2024-03-23T06:30:05;13.37;;;5.23;;
56641;SDS011;76646;51.506;5.304;2024-03-23T06:32:31;11.30;;;6.07;;
56641;SDS011;76646;51.506;5.304;2024-03-23T06:34:58;7.80;;;5.40;;
56641;SDS011;76646;51.506;5.304;2024-03-23T06:37:24;21.27;;;5.20;;
56641;SDS011;76646;51.506;5.304;2024-03-23T06:39:50;18.07;;;5.47;;
56641;SDS011;76646;51.506;5.304;2024-03-23T06:42:16;12.70;;;5.30;;
56641;SDS011;76646;51.506;5.304;2024-03-23T06:44:41;9.33;;;5.40;;
56641;SDS011;76646;51.506;5.304;2024-03-23T06:47:09;7.87;;;4.33;;
56641;SDS011;76646;51.506;5.304;2024-03-23T06:49:35;8.73;;;6.30;;
56641;SDS011;76646;51.506;5.304;2024-03-23T06:52:01;11.10;;;4.03;;
56641;SDS011;76646;51.506;5.304;2024-03-23T06:54:26;12.63;;;4.90;;
56641;SDS011;76646;51.506;5.304;2024-03-23T06:56:52;11.90;;;4.33;;
56641;SDS011;76646;51.506;5.304;2024-03-23T06:59:18;11.27;;;6.10;;
56641;SDS011;76646;51.506;5.304;2024-03-23T07:01:43;6.90;;;4.80;;
56641;SDS011;76646;51.506;5.304;2024-03-23T07:04:09;17.13;;;6.33;;
56641;SDS011;76646;51.506;5.304;2024-03-23T07:06:41;7.17;;;4.13;;
56641;SDS011;76646;51.506;5.304;2024-03-23T07:09:07;11.03;;;4.40;;
56641;SDS011;76646;51.506;5.304;2024-03-23T07:11:34;10.33;;;4.37;;
56641;SDS011;76646;51.506;5.304;2024-03-23T07:14:00;19.40;;;5.97;;
56641;SDS011;76646;51.506;5.304;2024-03-23T07:16:29;6.67;;;4.00;;
56641;SDS011;76646;51.506;5.304;2024-03-23T07:18:54;11.03;;;4.97;;
56641;SDS011;76646;51.506;5.304;2024-03-23T07:21:21;11.37;;;3.90;;
56641;SDS011;76646;51.506;5.304;2024-03-23T07:23:47;5.13;;;3.87;;
56641;SDS011;76646;51.506;5.304;2024-03-23T07:26:13;10.83;;;3.90;;
56641;SDS011;76646;51.506;5.304;2024-03-23T07:28:38;8.27;;;4.50;;
56641;SDS011;76646;51.506;5.304;2024-03-23T07:31:10;12.75;;;4.43;;
56641;SDS011;76646;51.506;5.304;2024-03-23T07:33:45;17.08;;;3.70;;
56641;SDS011;76646;51.506;5.304;2024-03-23T07:36:11;4.90;;;3.40;;
56641;SDS011;76646;51.506;5.304;2024-03-23T07:38:37;10.00;;;3.88;;
56641;SDS011;76646;51.506;5.304;2024-03-23T07:41:07;9.30;;;6.47;;
56641;SDS011;76646;51.506;5.304;2024-03-23T07:43:32;10.77;;;4.03;;
56641;SDS011;76646;51.506;5.304;2024-03-23T07:45:59;10.10;;;3.55;;
56641;SDS011;76646;51.506;5.304;2024-03-23T07:48:24;8.13;;;4.22;;
56641;SDS011;76646;51.506;5.304;2024-03-23T07:50:58;14.90;;;4.28;;
56641;SDS011;76646;51.506;5.304;2024-03-23T07:53:23;12.85;;;5.68;;
56641;SDS011;76646;51.506;5.304;2024-03-23T07:55:56;9.10;;;4.10;;
56641;SDS011;76646;51.506;5.304;2024-03-23T07:58:22;5.43;;;3.83;;
56641;SDS011;76646;51.506;5.304;2024-03-23T08:00:47;9.00;;;3.25;;
56641;SDS011;76646;51.506;5.304;2024-03-23T08:03:14;5.13;;;2.88;;
56641;SDS011;76646;51.506;5.304;2024-03-23T08:05:40;9.57;;;3.10;;
56641;SDS011;76646;51.506;5.304;2024-03-23T08:08:06;5.90;;;3.70;;
56641;SDS011;76646;51.506;5.304;2024-03-23T08:10:32;6.43;;;3.13;;
56641;SDS011;76646;51.506;5.304;2024-03-23T08:12:57;10.35;;;3.63;;
56641;SDS011;76646;51.506;5.304;2024-03-23T08:15:23;9.68;;;2.88;;
56641;SDS011;76646;51.506;5.304;2024-03-23T08:17:49;8.27;;;5.22;;
56641;SDS011;76646;51.506;5.304;2024-03-23T08:20:14;4.80;;;2.35;;
56641;SDS011;76646;51.506;5.304;2024-03-23T08:22:41;15.45;;;3.42;;
56641;SDS011;76646;51.506;5.304;2024-03-23T08:25:06;12.13;;;3.10;;
56641;SDS011;76646;51.506;5.304;2024-03-23T08:27:35;7.55;;;2.53;;
56641;SDS011;76646;51.506;5.304;2024-03-23T08:30:00;10.50;;;2.70;;
56641;SDS011;76646;51.506;5.304;2024-03-23T08:32:27;17.02;;;3.67;;
56641;SDS011;76646;51.506;5.304;2024-03-23T08:34:53;12.52;;;4.03;;
56641;SDS011;76646;51.506;5.304;2024-03-23T08:37:18;6.60;;;3.30;;
56641;SDS011;76646;51.506;5.304;2024-03-23T08:39:44;4.40;;;2.05;;
56641;SDS011;76646;51.506;5.304;2024-03-23T08:42:10;8.32;;;2.95;;
56641;SDS011;76646;51.506;5.304;2024-03-23T08:44:36;5.00;;;3.20;;
56641;SDS011;76646;51.506;5.304;2024-03-23T08:47:01;9.02;;;2.47;;
56641;SDS011;76646;51.506;5.304;2024-03-23T08:49:27;8.07;;;4.03;;
56641;SDS011;76646;51.506;5.304;2024-03-23T08:51:53;2.85;;;1.83;;
56641;SDS011;76646;51.506;5.304;2024-03-23T08:54:20;3.15;;;2.65;;
56641;SDS011;76646;51.506;5.304;2024-03-23T08:56:49;1.70;;;1.00;;
56641;SDS011;76646;51.506;5.304;2024-03-23T08:59:15;6.38;;;1.73;;
56641;SDS011;76646;51.506;5.304;2024-03-23T09:01:41;2.72;;;1.48;;
56641;SDS011;76646;51.506;5.304;2024-03-23T09:04:09;8.13;;;1.73;;
56641;SDS011;76646;51.506;5.304;2024-03-23T09:06:35;5.30;;;1.67;;
56641;SDS011;76646;51.506;5.304;2024-03-23T09:09:01;1.80;;;0.97;;
56641;SDS011;76646;51.506;5.304;2024-03-23T09:11:26;3.57;;;1.20;;
56641;SDS011;76646;51.506;5.304;2024-03-23T09:13:52;6.90;;;2.07;;
56641;SDS011;76646;51.506;5.304;2024-03-23T09:16:18;8.07;;;1.53;;
56641;SDS011;76646;51.506;5.304;2024-03-23T09:18:44;3.40;;;1.60;;
56641;SDS011;76646;51.506;5.304;2024-03-23T09:21:11;7.47;;;1.65;;
56641;SDS011;76646;51.506;5.304;2024-03-23T09:23:37;11.65;;;2.35;;
56641;SDS011;76646;51.506;5.304;2024-03-23T09:26:04;9.70;;;2.45;;
56641;SDS011;76646;51.506;5.304;2024-03-23T09:28:30;4.57;;;2.22;;
56641;SDS011;76646;51.506;5.304;2024-03-23T09:31:01;8.00;;;2.53;;
56641;SDS011;76646;51.506;5.304;2024-03-23T09:33:27;5.20;;;1.77;;
56641;SDS011;76646;51.506;5.304;2024-03-23T09:35:54;8.00;;;1.65;;
56641;SDS011;76646;51.506;5.304;2024-03-23T09:38:20;13.77;;;4.60;;
56641;SDS011;76646;51.506;5.304;2024-03-23T09:40:47;9.82;;;3.40;;
56641;SDS011;76646;51.506;5.304;2024-03-23T09:43:13;5.22;;;2.75;;
56641;SDS011;76646;51.506;5.304;2024-03-23T09:45:40;7.60;;;2.03;;
56641;SDS011;76646;51.506;5.304;2024-03-23T09:48:08;5.45;;;2.20;;
56641;SDS011;76646;51.506;5.304;2024-03-23T09:50:36;6.88;;;3.35;;
56641;SDS011;76646;51.506;5.304;2024-03-23T09:53:01;4.10;;;2.58;;
56641;SDS011;76646;51.506;5.304;2024-03-23T09:55:27;9.57;;;2.38;;
56641;SDS011;76646;51.506;5.304;2024-03-23T09:57:52;4.50;;;2.30;;
56641;SDS011;76646;51.506;5.304;2024-03-23T10:00:18;10.38;;;4.15;;
56641;SDS011;76646;51.506;5.304;2024-03-23T10:02:45;1.77;;;1.10;;
56641;SDS011;76646;51.506;5.304;2024-03-23T10:05:20;6.70;;;1.10;;
56641;SDS011;76646;51.506;5.304;2024-03-23T10:07:47;3.97;;;1.35;;
56641;SDS011;76646;51.506;5.304;2024-03-23T10:10:13;1.95;;;1.73;;
56641;SDS011;76646;51.506;5.304;2024-03-23T10:12:43;3.72;;;2.25;;
56641;SDS011;76646;51.506;5.304;2024-03-23T10:15:20;4.57;;;2.10;;
56641;SDS011;76646;51.506;5.304;2024-03-23T10:17:46;12.75;;;4.07;;
56641;SDS011;76646;51.506;5.304;2024-03-23T10:20:12;6.43;;;1.90;;
56641;SDS011;76646;51.506;5.304;2024-03-23T10:22:39;6.82;;;3.63;;
56641;SDS011;76646;51.506;5.304;2024-03-23T10:25:09;6.07;;;2.72;;
56641;SDS011;76646;51.506;5.304;2024-03-23T10:27:35;2.22;;;1.67;;
56641;SDS011;76646;51.506;5.304;2024-03-23T10:30:08;3.17;;;1.40;;
56641;SDS011;76646;51.506;5.304;2024-03-23T10:32:34;8.65;;;3.00;;
56641;SDS011;76646;51.506;5.304;2024-03-23T10:37:45;7.07;;;2.65;;
56641;SDS011;76646;51.506;5.304;2024-03-23T10:40:12;5.88;;;1.20;;
56641;SDS011;76646;51.506;5.304;2024-03-23T10:42:38;6.50;;;2.28;;
56641;SDS011;76646;51.506;5.304;2024-03-23T10:45:06;5.70;;;2.50;;
56641;SDS011;76646;51.506;5.304;2024-03-23T10:47:34;4.60;;;2.33;;
56641;SDS011;76646;51.506;5.304;2024-03-23T10:49:59;7.93;;;2.25;;
56641;SDS011;76646;51.506;5.304;2024-03-23T10:52:25;4.63;;;1.95;;
56641;SDS011;76646;51.506;5.304;2024-03-23T10:54:51;9.90;;;3.13;;
56641;SDS011;76646;51.506;5.304;2024-03-23T10:57:18;1.92;;;1.35;;
56641;SDS011;76646;51.506;5.304;2024-03-23T10:59:45;5.45;;;1.48;;
56641;SDS011;76646;51.506;5.304;2024-03-23T11:02:20;7.50;;;3.15;;
56641;SDS011;76646;51.506;5.304;2024-03-23T11:04:46;10.40;;;2.75;;
56641;SDS011;76646;51.506;5.304;2024-03-23T11:09:52;8.68;;;1.95;;
56641;SDS011;76646;51.506;5.304;2024-03-23T11:14:45;6.05;;;2.10;;
56641;SDS011;76646;51.506;5.304;2024-03-23T11:17:11;3.58;;;2.42;;
56641;SDS011;76646;51.506;5.304;2024-03-23T11:19:37;1.42;;;1.02;;
56641;SDS011;76646;51.506;5.304;2024-03-23T11:22:04;2.47;;;1.23;;
56641;SDS011;76646;51.506;5.304;2024-03-23T11:24:33;2.05;;;0.90;;
56641;SDS011;76646;51.506;5.304;2024-03-23T11:26:59;3.70;;;1.48;;
56641;SDS011;76646;51.506;5.304;2024-03-23T11:31:55;1.05;;;0.93;;
56641;SDS011;76646;51.506;5.304;2024-03-23T11:34:22;4.63;;;1.45;;
56641;SDS011;76646;51.506;5.304;2024-03-23T11:36:48;3.13;;;2.13;;
56641;SDS011;76646;51.506;5.304;2024-03-23T11:39:17;3.90;;;1.05;;
56641;SDS011;76646;51.506;5.304;2024-03-23T11:41:49;0.95;;;0.88;;
56641;SDS011;76646;51.506;5.304;2024-03-23T11:44:19;3.60;;;1.35;;
56641;SDS011;76646;51.506;5.304;2024-03-23T11:46:48;0.50;;;0.50;;
56641;SDS011;76646;51.506;5.304;2024-03-23T11:51:41;2.05;;;0.90;;
56641;SDS011;76646;51.506;5.304;2024-03-23T11:54:07;3.13;;;1.63;;
56641;SDS011;76646;51.506;5.304;2024-03-23T11:56:33;3.47;;;1.55;;
56641;SDS011;76646;51.506;5.304;2024-03-23T11:59:00;2.30;;;1.40;;
56641;SDS011;76646;51.506;5.304;2024-03-23T12:01:26;3.22;;;2.22;;
56641;SDS011;76646;51.506;5.304;2024-03-23T12:03:51;6.38;;;2.70;;
56641;SDS011;76646;51.506;5.304;2024-03-23T12:06:19;8.85;;;1.08;;
56641;SDS011;76646;51.506;5.304;2024-03-23T12:08:45;5.45;;;1.38;;
56641;SDS011;76646;51.506;5.304;2024-03-23T12:11:12;6.75;;;2.47;;
56641;SDS011;76646;51.506;5.304;2024-03-23T12:13:38;2.30;;;1.17;;
56641;SDS011;76646;51.506;5.304;2024-03-23T12:16:15;3.58;;;1.45;;
56641;SDS011;76646;51.506;5.304;2024-03-23T12:18:44;2.72;;;2.42;;
56641;SDS011;76646;51.506;5.304;2024-03-23T12:21:12;4.50;;;2.10;;
56641;SDS011;76646;51.506;5.304;2024-03-23T12:23:41;7.63;;;2.88;;
56641;SDS011;76646;51.506;5.304;2024-03-23T12:26:08;8.35;;;3.05;;
56641;SDS011;76646;51.506;5.304;2024-03-23T12:28:34;8.32;;;2.63;;
56641;SDS011;76646;51.506;5.304;2024-03-23T12:31:00;5.40;;;1.83;;
56641;SDS011;76646;51.506;5.304;2024-03-23T12:33:27;5.30;;;1.95;;
56641;SDS011;76646;51.506;5.304;2024-03-23T12:35:52;2.35;;;1.30;;
56641;SDS011;76646;51.506;5.304;2024-03-23T12:38:19;4.20;;;2.15;;
56641;SDS011;76646;51.506;5.304;2024-03-23T12:40:49;2.58;;;1.00;;
56641;SDS011;76646;51.506;5.304;2024-03-23T12:43:15;3.17;;;1.20;;
56641;SDS011;76646;51.506;5.304;2024-03-23T12:45:41;4.78;;;1.90;;
56641;SDS011;76646;51.506;5.304;2024-03-23T12:48:07;4.32;;;1.88;;
56641;SDS011;76646;51.506;5.304;2024-03-23T12:50:32;4.38;;;1.90;;
56641;SDS011;76646;51.506;5.304;2024-03-23T12:52:58;2.83;;;1.10;;
56641;SDS011;76646;51.506;5.304;2024-03-23T12:55:24;5.05;;;1.00;;
56641;SDS011;76646;51.506;5.304;2024-03-23T12:57:49;7.95;;;2.35;;
56641;SDS011;76646;51.506;5.304;2024-03-23T13:00:15;1.10;;;0.90;;
56641;SDS011;76646;51.506;5.304;2024-03-23T13:02:42;12.27;;;1.60;;
56641;SDS011;76646;51.506;5.304;2024-03-23T13:05:08;4.55;;;1.77;;
56641;SDS011;76646;51.506;5.304;2024-03-23T13:07:35;5.65;;;1.30;;
56641;SDS011;76646;51.506;5.304;2024-03-23T13:10:01;6.53;;;1.75;;
56641;SDS011;76646;51.506;5.304;2024-03-23T13:12:26;1.67;;;1.40;;
56641;SDS011;76646;51.506;5.304;2024-03-23T13:14:52;4.72;;;1.23;;
56641;SDS011;76646;51.506;5.304;2024-03-23T13:17:17;6.78;;;3.05;;
56641;SDS011;76646;51.506;5.304;2024-03-23T13:19:47;3.17;;;2.40;;
56641;SDS011;76646;51.506;5.304;2024-03-23T13:22:13;0.98;;;0.70;;
56641;SDS011;76646;51.506;5.304;2024-03-23T13:24:38;0.73;;;0.73;;
56641;SDS011;76646;51.506;5.304;2024-03-23T13:27:04;1.33;;;1.02;;
56641;SDS011;76646;51.506;5.304;2024-03-23T13:29:33;1.17;;;0.80;;
56641;SDS011;76646;51.506;5.304;2024-03-23T13:32:00;1.65;;;1.25;;
56641;SDS011;76646;51.506;5.304;2024-03-23T13:34:26;2.20;;;1.35;;
56641;SDS011;76646;51.506;5.304;2024-03-23T13:36:54;3.80;;;1.42;;
56641;SDS011;76646;51.506;5.304;2024-03-23T13:39:21;4.30;;;1.25;;
56641;SDS011;76646;51.506;5.304;2024-03-23T13:41:47;5.75;;;2.45;;
56641;SDS011;76646;51.506;5.304;2024-03-23T13:44:13;2.72;;;1.40;;
56641;SDS011;76646;51.506;5.304;2024-03-23T13:46:41;2.30;;;1.73;;
56641;SDS011;76646;51.506;5.304;2024-03-23T13:49:26;2.23;;;2.00;;
56641;SDS011;76646;51.506;5.304;2024-03-23T13:51:53;2.47;;;2.00;;
56641;SDS011;76646;51.506;5.304;2024-03-23T13:54:19;5.50;;;2.55;;
56641;SDS011;76646;51.506;5.304;2024-03-23T13:56:45;6.57;;;3.20;;
56641;SDS011;76646;51.506;5.304;2024-03-23T13:59:11;6.18;;;1.77;;
56641;SDS011;76646;51.506;5.304;2024-03-23T14:01:38;6.10;;;1.70;;
56641;SDS011;76646;51.506;5.304;2024-03-23T14:04:03;9.68;;;1.70;;
56641;SDS011;76646;51.506;5.304;2024-03-23T14:06:29;6.85;;;3.88;;
56641;SDS011;76646;51.506;5.304;2024-03-23T14:08:55;2.92;;;2.25;;
56641;SDS011;76646;51.506;5.304;2024-03-23T14:11:20;6.75;;;1.92;;
56641;SDS011;76646;51.506;5.304;2024-03-23T14:13:48;4.57;;;1.75;;
56641;SDS011;76646;51.506;5.304;2024-03-23T14:16:14;5.10;;;2.05;;
56641;SDS011;76646;51.506;5.304;2024-03-23T14:18:40;2.28;;;1.83;;
56641;SDS011;76646;51.506;5.304;2024-03-23T14:21:06;5.28;;;1.60;;
56641;SDS011;76646;51.506;5.304;2024-03-23T14:23:33;5.32;;;2.50;;
56641;SDS011;76646;51.506;5.304;2024-03-23T14:25:59;8.05;;;2.30;;
56641;SDS011;76646;51.506;5.304;2024-03-23T14:28:25;9.50;;;2.25;;
56641;SDS011;76646;51.506;5.304;2024-03-23T14:30:51;7.13;;;2.70;;
56641;SDS011;76646;51.506;5.304;2024-03-23T14:33:17;5.18;;;2.92;;
56641;SDS011;76646;51.506;5.304;2024-03-23T14:35:43;7.45;;;2.35;;
56641;SDS011;76646;51.506;5.304;2024-03-23T14:38:09;2.95;;;2.55;;
56641;SDS011;76646;51.506;5.304;2024-03-23T14:40:34;1.40;;;1.30;;
56641;SDS011;76646;51.506;5.304;2024-03-23T14:43:01;7.88;;;3.15;;
56641;SDS011;76646;51.506;5.304;2024-03-23T14:45:28;6.47;;;1.85;;
56641;SDS011;76646;51.506;5.304;2024-03-23T14:47:53;4.65;;;1.27;;
56641;SDS011;76646;51.506;5.304;2024-03-23T14:50:19;1.77;;;1.13;;
56641;SDS011;76646;51.506;5.304;2024-03-23T14:52:45;2.08;;;1.52;;
56641;SDS011;76646;51.506;5.304;2024-03-23T14:55:13;4.85;;;1.55;;
56641;SDS011;76646;51.506;5.304;2024-03-23T14:57:40;15.35;;;1.70;;
56641;SDS011;76646;51.506;5.304;2024-03-23T15:00:07;2.05;;;1.48;;
56641;SDS011;76646;51.506;5.304;2024-03-23T15:02:33;2.70;;;1.13;;
56641;SDS011;76646;51.506;5.304;2024-03-23T15:04:59;4.60;;;1.13;;
56641;SDS011;76646;51.506;5.304;2024-03-23T15:07:26;5.32;;;3.13;;
56641;SDS011;76646;51.506;5.304;2024-03-23T15:09:52;4.05;;;2.15;;
56641;SDS011;76646;51.506;5.304;2024-03-23T15:12:19;10.82;;;2.10;;
56641;SDS011;76646;51.506;5.304;2024-03-23T15:14:48;9.98;;;1.30;;
56641;SDS011;76646;51.506;5.304;2024-03-23T15:17:14;3.42;;;1.40;;
56641;SDS011;76646;51.506;5.304;2024-03-23T15:19:40;4.55;;;1.67;;
56641;SDS011;76646;51.506;5.304;2024-03-23T15:22:08;7.00;;;1.27;;
56641;SDS011;76646;51.506;5.304;2024-03-23T15:24:36;1.77;;;1.40;;
56641;SDS011;76646;51.506;5.304;2024-03-23T15:27:03;2.57;;;1.00;;
56641;SDS011;76646;51.506;5.304;2024-03-23T15:29:29;2.77;;;1.20;;
56641;SDS011;76646;51.506;5.304;2024-03-23T15:31:56;1.30;;;1.20;;
56641;SDS011;76646;51.506;5.304;2024-03-23T15:34:22;3.60;;;0.70;;
56641;SDS011;76646;51.506;5.304;2024-03-23T15:36:48;2.40;;;1.10;;
56641;SDS011;76646;51.506;5.304;2024-03-23T15:39:16;0.83;;;0.83;;
56641;SDS011;76646;51.506;5.304;2024-03-23T15:41:49;2.00;;;1.03;;
56641;SDS011;76646;51.506;5.304;2024-03-23T15:44:16;4.47;;;1.37;;
56641;SDS011;76646;51.506;5.304;2024-03-23T15:46:42;0.83;;;0.80;;
56641;SDS011;76646;51.506;5.304;2024-03-23T15:49:07;1.77;;;0.90;;